createdAt,value
2018-07-09T00:01:54.223Z,19.88
2018-07-09T00:04:25.478Z,19.89
2018-07-09T00:07:00.787Z,19.72
2018-07-09T00:09:31.734Z,19.75
2018-07-09T00:12:04.406Z,19.81
2018-07-09T00:14:35.111Z,19.63
2018-07-09T00:17:06.422Z,19.52
2018-07-09T00:19:37.529Z,19.54
2018-07-09T00:22:08.797Z,19.48
2018-07-09T00:24:41.322Z,19.34
2018-07-09T00:27:12.783Z,19.27
2018-07-09T00:29:45.286Z,19.19
2018-07-09T00:32:16.414Z,19.09
2018-07-09T00:34:48.490Z,19.25
2018-07-09T00:37:19.751Z,19.21
2018-07-09T00:39:50.376Z,19.15
2018-07-09T00:42:24.365Z,19.19
2018-07-09T00:44:56.629Z,19.21
2018-07-09T00:47:27.199Z,19.24
2018-07-09T00:49:58.599Z,19.27
2018-07-09T00:52:29.847Z,19.41
2018-07-09T00:55:00.914Z,19.41
2018-07-09T00:57:32.193Z,18.97
2018-07-09T01:00:03.682Z,19.03
2018-07-09T01:02:35.349Z,19.18
2018-07-09T01:05:06.985Z,19.35
2018-07-09T01:07:39.313Z,19.53
2018-07-09T01:10:10.517Z,19.55
2018-07-09T01:12:41.294Z,19.47
2018-07-09T01:15:13.078Z,19.51
2018-07-09T01:17:44.465Z,19.49
2018-07-09T01:20:15.698Z,19.49
2018-07-09T01:22:46.473Z,19.49
2018-07-09T01:25:17.781Z,19.48
2018-07-09T01:27:49.468Z,19.55
2018-07-09T01:30:20.853Z,19.57
2018-07-09T01:32:52.128Z,19.41
2018-07-09T01:35:23.782Z,19.38
2018-07-09T01:37:55.213Z,19.38
2018-07-09T01:40:26.120Z,19.26
2018-07-09T01:42:57.045Z,19.06
2018-07-09T01:45:28.714Z,19.09
2018-07-09T01:47:59.748Z,19.04
2018-07-09T01:50:30.995Z,18.96
2018-07-09T01:53:02.232Z,18.93
2018-07-09T01:55:33.601Z,18.88
2018-07-09T01:58:04.931Z,19.03
2018-07-09T02:00:36.622Z,19.03
2018-07-09T02:03:07.979Z,19.16
2018-07-09T02:05:39.646Z,19.25
2018-07-09T02:08:11.010Z,19.28
2018-07-09T02:10:42.354Z,19.41
2018-07-09T02:13:13.617Z,19.38
2018-07-09T02:15:44.998Z,19.27
2018-07-09T02:18:16.299Z,19.14
2018-07-09T02:20:47.557Z,18.87
2018-07-09T02:23:18.928Z,18.99
2018-07-09T02:25:49.932Z,19.00
2018-07-09T02:28:21.737Z,19.10
2018-07-09T02:30:53.032Z,19.11
2018-07-09T02:33:24.044Z,19.04
2018-07-09T02:35:55.963Z,18.85
2018-07-09T02:38:27.242Z,18.59
2018-07-09T02:40:58.303Z,18.69
2018-07-09T02:43:29.266Z,18.80
2018-07-09T02:46:01.365Z,18.83
2018-07-09T02:48:32.806Z,18.82
2018-07-09T02:51:04.333Z,18.61
2018-07-09T02:53:35.946Z,18.77
2018-07-09T02:56:06.935Z,18.72
2018-07-09T02:58:37.466Z,18.75
2018-07-09T03:01:08.689Z,18.75
2018-07-09T03:03:39.277Z,18.89
2018-07-09T03:06:09.631Z,18.97
2018-07-09T03:08:40.028Z,18.78
2018-07-09T03:11:10.326Z,18.60
2018-07-09T03:13:41.309Z,18.77
2018-07-09T03:16:12.157Z,18.85
2018-07-09T03:18:43.654Z,18.91
2018-07-09T03:21:15.306Z,18.96
2018-07-09T03:23:46.607Z,19.01
2018-07-09T03:26:17.633Z,19.08
2018-07-09T03:28:49.048Z,19.20
2018-07-09T03:31:20.726Z,19.24
2018-07-09T03:33:52.460Z,19.25
2018-07-09T03:36:23.493Z,19.28
2018-07-09T03:38:55.150Z,19.33
2018-07-09T03:41:26.688Z,19.19
2018-07-09T03:43:58.618Z,19.33
2018-07-09T03:46:29.393Z,19.41
2018-07-09T03:49:00.787Z,19.58
2018-07-09T03:51:31.712Z,19.80
2018-07-09T03:54:02.896Z,19.89
2018-07-09T03:56:34.282Z,20.27
2018-07-09T03:59:04.963Z,20.20
2018-07-09T04:01:36.427Z,20.26
2018-07-09T04:04:07.885Z,20.37
2018-07-09T04:06:38.499Z,20.48
2018-07-09T04:09:09.692Z,20.47
2018-07-09T04:11:40.465Z,20.58
2018-07-09T04:14:12.193Z,20.76
2018-07-09T04:16:43.963Z,20.85
2018-07-09T04:19:15.086Z,21.08
2018-07-09T04:21:46.808Z,21.12
2018-07-09T04:24:18.017Z,21.42
2018-07-09T04:26:49.501Z,21.50
2018-07-09T04:29:20.849Z,21.57
2018-07-09T04:31:51.853Z,21.68
2018-07-09T04:34:23.579Z,21.68
2018-07-09T04:36:56.025Z,21.84
2018-07-09T04:39:27.297Z,21.92
2018-07-09T04:41:58.308Z,21.97
2018-07-09T04:44:29.824Z,21.99
2018-07-09T04:47:01.304Z,21.87
2018-07-09T04:49:32.724Z,21.84
2018-07-09T04:52:02.919Z,21.78
2018-07-09T04:54:33.677Z,21.79
2018-07-09T04:57:04.357Z,21.65
2018-07-09T04:59:35.585Z,21.63
2018-07-09T05:02:06.161Z,21.76
2018-07-09T05:04:37.120Z,21.73
2018-07-09T05:07:08.026Z,21.65
2018-07-09T05:09:38.513Z,21.69
2018-07-09T05:12:09.124Z,21.73
2018-07-09T05:14:39.563Z,21.77
2018-07-09T05:17:10.327Z,21.72
2018-07-09T05:19:40.693Z,21.80
2018-07-09T05:22:10.821Z,21.74
2018-07-09T05:24:41.114Z,21.97
2018-07-09T05:27:12.136Z,22.01
2018-07-09T05:29:42.886Z,21.90
2018-07-09T05:32:13.773Z,21.92
2018-07-09T05:34:44.116Z,22.08
2018-07-09T05:37:14.661Z,22.21
2018-07-09T05:39:45.953Z,22.01
2018-07-09T05:42:16.738Z,22.02
2018-07-09T05:44:47.420Z,22.04
2018-07-09T05:47:18.715Z,22.11
2018-07-09T05:49:52.272Z,22.11
2018-07-09T05:52:23.040Z,22.25
2018-07-09T05:54:54.242Z,22.19
2018-07-09T05:57:25.469Z,22.36
2018-07-09T05:59:56.977Z,22.54
2018-07-09T06:02:27.225Z,22.55
2018-07-09T06:04:58.353Z,22.42
2018-07-09T06:07:29.063Z,22.37
2018-07-09T06:10:00.275Z,22.49
2018-07-09T06:12:31.688Z,22.65
2018-07-09T06:15:02.885Z,22.85
2018-07-09T06:17:34.326Z,22.86
2018-07-09T06:20:05.349Z,22.87
2018-07-09T06:22:36.685Z,23.12
2018-07-09T06:25:07.908Z,23.30
2018-07-09T06:27:38.759Z,23.02
2018-07-09T06:30:10.030Z,23.03
2018-07-09T06:32:41.069Z,23.05
2018-07-09T06:35:12.404Z,23.11
2018-07-09T06:37:43.575Z,23.36
2018-07-09T06:40:14.929Z,23.41
2018-07-09T06:42:46.676Z,23.41
2018-07-09T06:45:19.246Z,23.48
2018-07-09T06:47:50.700Z,23.49
2018-07-09T06:50:22.403Z,23.58
2018-07-09T06:52:53.083Z,23.46
2018-07-09T06:55:24.852Z,23.56
2018-07-09T06:57:56.208Z,23.53
2018-07-09T07:00:27.185Z,23.70
2018-07-09T07:02:58.340Z,24.01
2018-07-09T07:05:30.045Z,24.23
2018-07-09T07:08:01.070Z,24.33
2018-07-09T07:10:32.449Z,24.32
2018-07-09T07:13:02.786Z,24.47
2018-07-09T07:15:34.097Z,24.40
2018-07-09T07:18:05.951Z,24.50
2018-07-09T07:20:37.690Z,24.61
2018-07-09T07:23:09.321Z,24.80
2018-07-09T07:25:41.139Z,24.68
2018-07-09T07:28:12.989Z,24.93
2018-07-09T07:30:44.737Z,24.91
2018-07-09T07:33:16.700Z,24.82
2018-07-09T07:35:48.634Z,24.98
2018-07-09T07:38:21.185Z,25.02
2018-07-09T07:40:53.328Z,25.22
2018-07-09T07:43:25.439Z,25.22
2018-07-09T07:45:56.280Z,25.65
2018-07-09T07:48:26.772Z,25.90
2018-07-09T07:50:57.931Z,26.03
2018-07-09T07:53:29.315Z,26.04
2018-07-09T07:56:00.964Z,26.05
2018-07-09T07:58:32.883Z,26.30
2018-07-09T08:01:04.723Z,26.28
2018-07-09T08:03:36.833Z,26.35
2018-07-09T08:06:09.875Z,26.26
2018-07-09T08:08:42.085Z,26.23
2018-07-09T08:11:14.274Z,26.68
2018-07-09T08:13:46.181Z,26.72
2018-07-09T08:16:18.447Z,26.89
2018-07-09T08:18:49.768Z,27.23
2018-07-09T08:21:21.048Z,27.16
2018-07-09T08:23:52.927Z,26.88
2018-07-09T08:26:24.367Z,27.31
2018-07-09T08:28:56.543Z,27.39
2018-07-09T08:31:28.020Z,27.29
2018-07-09T08:33:59.031Z,27.55
2018-07-09T08:36:29.994Z,27.69
2018-07-09T08:39:01.666Z,27.87
2018-07-09T08:41:34.652Z,27.91
2018-07-09T08:44:06.216Z,28.09
2018-07-09T08:46:37.851Z,28.10
2018-07-09T08:49:09.364Z,27.58
2018-07-09T08:51:40.672Z,27.49
2018-07-09T08:54:12.100Z,27.76
2018-07-09T08:56:43.627Z,27.83
2018-07-09T08:59:14.663Z,28.22
2018-07-09T09:01:45.322Z,28.48
2018-07-09T09:04:16.707Z,28.57
2018-07-09T09:06:48.041Z,28.78
2018-07-09T09:09:19.880Z,28.85
2018-07-09T09:11:51.056Z,28.92
2018-07-09T09:14:21.651Z,28.71
2018-07-09T09:16:52.963Z,28.83
2018-07-09T09:19:24.426Z,28.24
2018-07-09T09:21:56.059Z,28.40
2018-07-09T09:24:27.389Z,28.86
2018-07-09T09:26:59.261Z,28.68
2018-07-09T09:29:30.143Z,29.04
2018-07-09T09:32:01.651Z,29.32
2018-07-09T09:34:33.649Z,29.19
2018-07-09T09:37:05.748Z,29.29
2018-07-09T09:39:38.411Z,29.22
2018-07-09T09:42:10.239Z,29.36
2018-07-09T09:44:41.777Z,29.55
2018-07-09T09:47:13.573Z,29.69
2018-07-09T09:49:45.249Z,29.43
2018-07-09T09:52:17.400Z,29.47
2018-07-09T09:54:49.126Z,29.74
2018-07-09T09:57:21.204Z,29.60
2018-07-09T09:59:53.263Z,29.98
2018-07-09T10:02:24.955Z,29.62
2018-07-09T10:04:55.586Z,30.13
2018-07-09T10:07:26.138Z,30.91
2018-07-09T10:09:57.249Z,30.43
2018-07-09T10:12:27.756Z,30.20
2018-07-09T10:14:58.350Z,30.00
2018-07-09T10:17:29.226Z,30.16
2018-07-09T10:20:00.337Z,30.31
2018-07-09T10:22:32.036Z,30.68
2018-07-09T10:25:02.562Z,30.49
2018-07-09T10:27:32.926Z,30.36
2018-07-09T10:30:03.349Z,30.80
2018-07-09T10:32:34.969Z,30.85
2018-07-09T10:35:05.544Z,30.74
2018-07-09T10:37:36.885Z,30.71
2018-07-09T10:40:07.496Z,30.78
2018-07-09T10:42:39.387Z,31.14
2018-07-09T10:45:10.604Z,31.39
2018-07-09T10:47:42.537Z,31.59
2018-07-09T10:50:13.277Z,32.04
2018-07-09T10:52:44.499Z,32.43
2018-07-09T10:55:14.854Z,32.03
2018-07-09T10:57:46.056Z,31.77
2018-07-09T11:00:16.818Z,31.70
2018-07-09T11:02:47.725Z,31.68
2018-07-09T11:05:18.825Z,31.11
2018-07-09T11:07:49.674Z,31.44
2018-07-09T11:10:21.079Z,31.75
2018-07-09T11:12:51.580Z,32.03
2018-07-09T11:15:22.858Z,32.64
2018-07-09T11:17:54.449Z,32.16
2018-07-09T11:20:26.433Z,33.22
2018-07-09T11:22:58.609Z,33.58
2018-07-09T11:25:30.338Z,32.24
2018-07-09T11:28:02.544Z,31.98
2018-07-09T11:30:33.921Z,31.58
2018-07-09T11:33:04.715Z,32.32
2018-07-09T11:35:35.984Z,32.73
2018-07-09T11:38:07.468Z,32.15
2018-07-09T11:40:39.150Z,31.79
2018-07-09T11:43:10.490Z,31.85
2018-07-09T11:45:41.537Z,32.21
2018-07-09T11:48:13.565Z,31.76
2018-07-09T11:50:45.172Z,31.50
2018-07-09T11:53:16.473Z,31.24
2018-07-09T11:55:46.618Z,31.16
2018-07-09T11:58:17.353Z,31.34
2018-07-09T12:00:48.470Z,31.44
2018-07-09T12:03:20.556Z,31.31
2018-07-09T12:05:51.963Z,31.26
2018-07-09T12:08:23.329Z,31.73
2018-07-09T12:10:54.433Z,31.72
2018-07-09T12:13:24.878Z,32.29
2018-07-09T12:15:56.019Z,32.66
2018-07-09T12:18:27.789Z,33.57
2018-07-09T12:20:59.208Z,33.97
2018-07-09T12:23:30.442Z,33.43
2018-07-09T12:26:02.355Z,32.83
2018-07-09T12:28:33.687Z,33.47
2018-07-09T12:31:05.623Z,32.80
2018-07-09T12:33:36.528Z,32.94
2018-07-09T12:36:09.637Z,32.85
2018-07-09T12:38:41.951Z,32.34
2018-07-09T12:41:14.012Z,32.16
2018-07-09T12:43:45.629Z,31.82
2018-07-09T12:46:17.771Z,31.77
2018-07-09T12:48:49.100Z,31.69
2018-07-09T12:51:21.539Z,31.82
2018-07-09T12:53:52.815Z,32.25
2018-07-09T12:56:23.926Z,32.26
2018-07-09T12:58:55.160Z,32.22
2018-07-09T13:01:27.202Z,31.62
2018-07-09T13:03:59.291Z,31.98
2018-07-09T13:06:30.591Z,31.82
2018-07-09T13:09:02.740Z,31.57
2018-07-09T13:11:34.035Z,31.09
2018-07-09T13:14:05.402Z,31.17
2018-07-09T13:16:36.951Z,31.66
2018-07-09T13:19:09.093Z,31.67
2018-07-09T13:21:40.609Z,31.94
2018-07-09T13:24:12.072Z,31.76
2018-07-09T13:26:44.124Z,31.56
2018-07-09T13:29:14.472Z,31.03
2018-07-09T13:31:46.243Z,30.81
2018-07-09T13:34:17.960Z,30.36
2018-07-09T13:36:50.049Z,30.58
2018-07-09T13:39:21.645Z,30.87
2018-07-09T13:41:53.066Z,31.04
2018-07-09T13:44:24.801Z,30.41
2018-07-09T13:46:56.240Z,29.63
2018-07-09T13:49:27.611Z,29.83
2018-07-09T13:51:59.201Z,29.26
2018-07-09T13:54:30.648Z,29.21
2018-07-09T13:57:01.991Z,28.85
2018-07-09T13:59:33.905Z,28.66
2018-07-09T14:02:05.342Z,28.33
2018-07-09T14:04:36.716Z,28.15
2018-07-09T14:07:08.536Z,28.03
2018-07-09T14:09:39.380Z,27.83
2018-07-09T14:12:10.617Z,27.64
2018-07-09T14:14:41.817Z,27.41
2018-07-09T14:17:13.258Z,27.22
2018-07-09T14:20:24.125Z,27.33
2018-07-09T14:22:55.659Z,28.42
2018-07-09T14:25:27.346Z,27.95
2018-07-09T14:27:58.101Z,27.46
2018-07-09T14:30:28.510Z,27.51
2018-07-09T14:32:59.541Z,27.48
2018-07-09T14:35:30.954Z,27.92
2018-07-09T14:38:02.187Z,27.72
2018-07-09T14:40:34.102Z,27.08
2018-07-09T14:43:05.999Z,26.91
2018-07-09T14:45:37.105Z,26.90
2018-07-09T14:48:08.211Z,26.85
2018-07-09T14:50:39.603Z,26.84
2018-07-09T14:53:11.136Z,26.57
2018-07-09T14:55:42.240Z,26.35
2018-07-09T14:58:13.304Z,26.49
2018-07-09T15:00:44.782Z,26.40
2018-07-09T15:03:15.327Z,26.23
2018-07-09T15:05:47.016Z,26.12
2018-07-09T15:08:18.916Z,26.10
2018-07-09T15:10:50.800Z,26.15
2018-07-09T15:13:22.342Z,26.21
2018-07-09T15:15:53.363Z,26.16
2018-07-09T15:18:24.299Z,26.15
2018-07-09T15:20:57.365Z,26.11
2018-07-09T15:23:28.386Z,26.08
2018-07-09T15:25:59.859Z,26.12
2018-07-09T15:28:31.331Z,26.31
2018-07-09T15:31:01.977Z,26.57
2018-07-09T15:33:33.917Z,26.40
2018-07-09T15:36:05.264Z,26.65
2018-07-09T15:38:37.054Z,26.72
2018-07-09T15:41:08.764Z,26.67
2018-07-09T15:43:50.332Z,26.67
2018-07-09T15:46:22.322Z,26.72
2018-07-09T15:48:52.971Z,26.72
2018-07-09T15:51:24.497Z,26.75
2018-07-09T15:53:55.536Z,26.67
2018-07-09T15:56:27.825Z,26.73
2018-07-09T15:58:59.968Z,26.88
2018-07-09T16:01:31.446Z,26.90
2018-07-09T16:04:02.542Z,26.98
2018-07-09T16:06:34.310Z,27.01
2018-07-09T16:09:07.199Z,27.17
2018-07-09T16:11:38.339Z,27.32
2018-07-09T16:14:09.771Z,27.35
2018-07-09T16:16:41.395Z,27.37
2018-07-09T16:19:12.565Z,27.52
2018-07-09T16:21:44.242Z,27.40
2018-07-09T16:24:15.490Z,27.27
2018-07-09T16:26:47.008Z,27.20
2018-07-09T16:29:17.912Z,26.87
2018-07-09T16:31:48.618Z,26.84
2018-07-09T16:34:19.330Z,26.73
2018-07-09T16:36:49.846Z,26.54
2018-07-09T16:39:21.053Z,26.26
2018-07-09T16:41:52.475Z,25.97
2018-07-09T16:44:23.175Z,25.89
2018-07-09T16:46:55.060Z,25.90
2018-07-09T16:49:26.604Z,25.91
2018-07-09T16:51:57.666Z,25.26
2018-07-09T16:54:28.287Z,25.43
2018-07-09T16:56:59.770Z,25.45
2018-07-09T16:59:30.748Z,25.45
2018-07-09T17:02:01.740Z,25.34
2018-07-09T17:04:32.441Z,25.20
2018-07-09T17:07:04.367Z,24.91
2018-07-09T17:09:35.232Z,24.70
2018-07-09T17:12:05.449Z,24.72
2018-07-09T17:14:36.598Z,24.61
2018-07-09T17:17:07.712Z,24.63
2018-07-09T17:19:38.623Z,24.66
2018-07-09T17:22:09.548Z,24.76
2018-07-09T17:24:39.744Z,24.67
2018-07-09T17:27:10.642Z,24.40
2018-07-09T17:29:42.070Z,24.34
2018-07-09T17:32:12.170Z,24.23
2018-07-09T17:34:43.805Z,24.16
2018-07-09T17:37:16.312Z,23.80
2018-07-09T17:39:47.259Z,23.40
2018-07-09T17:42:18.982Z,23.07
2018-07-09T17:44:50.323Z,22.98
2018-07-09T17:47:21.854Z,22.97
2018-07-09T17:49:53.223Z,22.71
2018-07-09T17:52:24.467Z,22.44
2018-07-09T17:54:55.273Z,22.11
2018-07-09T17:57:27.181Z,21.91
2018-07-09T17:59:59.344Z,21.78
2018-07-09T18:02:31.353Z,21.62
2018-07-09T18:05:02.814Z,21.41
2018-07-09T18:07:34.406Z,21.26
2018-07-09T18:10:05.766Z,21.10
2018-07-09T18:12:36.914Z,21.17
2018-07-09T18:15:08.338Z,20.99
2018-07-09T18:17:39.295Z,20.84
2018-07-09T18:20:10.425Z,20.71
2018-07-09T18:22:41.971Z,20.63
2018-07-09T18:25:12.980Z,20.54
2018-07-09T18:27:43.937Z,20.45
2018-07-09T18:30:15.291Z,20.42
2018-07-09T18:32:46.177Z,20.40
2018-07-09T18:35:16.880Z,20.41
2018-07-09T18:37:48.156Z,20.37
2018-07-09T18:40:19.613Z,20.42
2018-07-09T18:42:49.766Z,20.42
2018-07-09T18:45:21.094Z,20.35
2018-07-09T18:47:52.041Z,20.28
2018-07-09T18:50:22.097Z,20.17
2018-07-09T18:52:52.658Z,20.04
2018-07-09T18:55:24.054Z,19.96
2018-07-09T18:57:54.272Z,20.06
2018-07-09T19:00:24.673Z,20.10
2018-07-09T19:02:55.857Z,19.98
2018-07-09T19:05:38.091Z,20.07
2018-07-09T19:08:08.913Z,20.07
2018-07-09T19:10:39.518Z,20.18
2018-07-09T19:13:10.538Z,20.14
2018-07-09T19:15:42.014Z,20.16
2018-07-09T19:18:26.775Z,20.15
2018-07-09T19:21:36.685Z,19.98
2018-07-09T19:24:06.873Z,19.71
2018-07-09T19:26:37.795Z,19.77
2018-07-09T19:29:06.181Z,19.59
2018-07-09T19:31:36.584Z,19.57
2018-07-09T19:34:06.447Z,19.45
2018-07-09T19:36:35.809Z,19.37
2018-07-09T19:39:08.319Z,19.25
2018-07-09T19:41:37.362Z,19.34
2018-07-09T19:44:06.433Z,19.37
2018-07-09T19:46:35.528Z,19.28
2018-07-09T19:49:04.672Z,19.29
2018-07-09T19:51:33.945Z,19.55
2018-07-09T19:54:02.714Z,19.72
2018-07-09T19:56:32.159Z,19.81
2018-07-09T19:59:01.262Z,19.77
2018-07-09T20:01:30.400Z,19.76
2018-07-09T20:04:00.278Z,19.91
2018-07-09T20:06:29.879Z,19.99
2018-07-09T20:10:05.651Z,20.04
2018-07-09T20:12:39.726Z,19.87
2018-07-09T20:15:13.526Z,19.65
2018-07-09T20:17:44.069Z,19.73
2018-07-09T20:20:13.698Z,19.82
2018-07-09T20:22:42.056Z,19.74
2018-07-09T20:25:10.862Z,19.65
2018-07-09T20:27:39.985Z,19.60
2018-07-09T20:30:09.105Z,19.55
2018-07-09T20:32:38.029Z,19.49
2018-07-09T20:35:06.858Z,19.56
2018-07-09T20:37:36.135Z,19.69
2018-07-09T20:40:05.227Z,19.68
2018-07-09T20:42:34.172Z,19.81
2018-07-09T20:45:03.224Z,19.78
2018-07-09T20:47:32.805Z,19.98
2018-07-09T20:50:02.556Z,20.07
2018-07-09T20:52:31.847Z,19.99
2018-07-09T20:55:01.518Z,19.97
2018-07-09T20:57:31.061Z,19.94
2018-07-09T21:00:00.880Z,20.06
2018-07-09T21:02:30.047Z,19.90
2018-07-09T21:04:58.961Z,20.04
2018-07-09T21:07:27.875Z,20.14
2018-07-09T21:09:56.957Z,20.03
2018-07-09T21:12:27.045Z,20.10
2018-07-09T21:14:56.023Z,19.96
2018-07-09T21:17:25.732Z,20.03
2018-07-09T21:19:55.328Z,19.94
2018-07-09T21:22:24.485Z,19.91
2018-07-09T21:24:53.759Z,20.08
2018-07-09T21:27:22.397Z,20.12
2018-07-09T21:29:51.788Z,20.10
2018-07-09T21:32:20.422Z,20.08
2018-07-09T21:34:49.826Z,20.03
2018-07-09T21:37:18.665Z,20.07
2018-07-09T21:39:47.080Z,20.02
2018-07-09T21:42:16.131Z,20.06
2018-07-09T21:44:45.481Z,20.04
2018-07-09T21:47:14.834Z,19.95
2018-07-09T21:49:43.565Z,19.94
2018-07-09T21:52:12.472Z,19.95
2018-07-09T21:54:41.622Z,19.98
2018-07-09T21:57:11.012Z,19.98
2018-07-09T21:59:40.054Z,20.00
2018-07-09T22:02:09.064Z,20.04
2018-07-09T22:04:38.792Z,20.00
2018-07-09T22:07:07.817Z,20.01
2018-07-09T22:09:36.440Z,20.04
2018-07-09T22:12:06.271Z,20.07
2018-07-09T22:14:35.259Z,20.00
2018-07-09T22:17:04.628Z,19.99
2018-07-09T22:19:33.803Z,19.99
2018-07-09T22:22:02.781Z,20.03
2018-07-09T22:24:32.243Z,19.92
2018-07-09T22:27:01.833Z,19.92
2018-07-09T22:29:30.381Z,19.94
2018-07-09T22:32:01.243Z,19.85
2018-07-09T22:34:31.952Z,19.71
2018-07-09T22:37:02.508Z,19.65
2018-07-09T22:39:33.106Z,19.68
2018-07-09T22:42:03.704Z,19.75
2018-07-09T22:44:34.276Z,19.73
2018-07-09T22:47:04.761Z,19.75
2018-07-09T22:49:35.251Z,19.79
2018-07-09T22:52:05.944Z,19.74
2018-07-09T22:54:36.280Z,19.73
2018-07-09T22:57:08.219Z,19.67
2018-07-09T22:59:39.706Z,19.56
2018-07-09T23:02:11.090Z,19.55
2018-07-09T23:04:41.872Z,19.58
2018-07-09T23:07:11.918Z,19.60
2018-07-09T23:10:07.289Z,19.57
2018-07-09T23:13:20.886Z,19.53
2018-07-09T23:16:39.012Z,19.65
2018-07-09T23:19:26.833Z,19.73
2018-07-09T23:22:13.447Z,19.83
2018-07-09T23:24:42.981Z,20.08
2018-07-09T23:27:12.053Z,20.19
2018-07-09T23:29:40.797Z,20.33
2018-07-09T23:32:10.183Z,20.31
2018-07-09T23:34:39.206Z,20.28
2018-07-09T23:37:08.079Z,20.32
2018-07-09T23:39:37.226Z,20.53
2018-07-09T23:42:06.368Z,20.49
2018-07-09T23:44:35.197Z,20.43
2018-07-09T23:47:04.114Z,20.46
2018-07-09T23:49:33.144Z,20.51
2018-07-09T23:52:01.642Z,20.44
2018-07-09T23:54:30.296Z,20.45
2018-07-09T23:59:27.440Z,20.34
